sensor_id;sensor_type;location;lat;lon;timestamp;P1;durP1;ratioP1;P2;durP2;ratioP2
47219;SDS011;32961;51.936;4.788;2023-03-12T00:02:25;12.25;;;5.28;;
47219;SDS011;32961;51.936;4.788;2023-03-12T00:04:53;11.52;;;5.15;;
47219;SDS011;32961;51.936;4.788;2023-03-12T00:07:21;15.70;;;5.10;;
47219;SDS011;32961;51.936;4.788;2023-03-12T00:09:49;11.75;;;4.43;;
47219;SDS011;32961;51.936;4.788;2023-03-12T00:12:17;13.50;;;5.05;;
47219;SDS011;32961;51.936;4.788;2023-03-12T00:14:45;13.43;;;4.80;;
47219;SDS011;32961;51.936;4.788;2023-03-12T00:17:13;11.70;;;4.82;;
47219;SDS011;32961;51.936;4.788;2023-03-12T00:19:42;9.15;;;4.13;;
47219;SDS011;32961;51.936;4.788;2023-03-12T00:22:10;10.73;;;4.30;;
47219;SDS011;32961;51.936;4.788;2023-03-12T00:24:38;10.95;;;4.15;;
47219;SDS011;32961;51.936;4.788;2023-03-12T00:27:06;8.50;;;4.50;;
47219;SDS011;32961;51.936;4.788;2023-03-12T00:29:34;9.45;;;4.22;;
47219;SDS011;32961;51.936;4.788;2023-03-12T00:32:02;10.43;;;4.35;;
47219;SDS011;32961;51.936;4.788;2023-03-12T00:34:30;11.88;;;4.18;;
47219;SDS011;32961;51.936;4.788;2023-03-12T00:36:59;10.90;;;4.35;;
47219;SDS011;32961;51.936;4.788;2023-03-12T00:39:27;15.35;;;4.85;;
47219;SDS011;32961;51.936;4.788;2023-03-12T00:41:55;10.48;;;4.22;;
47219;SDS011;32961;51.936;4.788;2023-03-12T00:44:22;8.60;;;3.63;;
47219;SDS011;32961;51.936;4.788;2023-03-12T00:46:50;9.93;;;4.72;;
47219;SDS011;32961;51.936;4.788;2023-03-12T00:49:18;11.68;;;4.20;;
47219;SDS011;32961;51.936;4.788;2023-03-12T00:51:46;8.88;;;3.75;;
47219;SDS011;32961;51.936;4.788;2023-03-12T00:54:15;9.23;;;4.97;;
47219;SDS011;32961;51.936;4.788;2023-03-12T00:56:43;11.30;;;4.13;;
47219;SDS011;32961;51.936;4.788;2023-03-12T00:59:12;10.70;;;4.22;;
47219;SDS011;32961;51.936;4.788;2023-03-12T01:01:40;10.35;;;4.22;;
47219;SDS011;32961;51.936;4.788;2023-03-12T01:04:08;11.52;;;4.45;;
47219;SDS011;32961;51.936;4.788;2023-03-12T01:06:36;14.25;;;4.53;;
47219;SDS011;32961;51.936;4.788;2023-03-12T01:09:04;7.57;;;3.70;;
47219;SDS011;32961;51.936;4.788;2023-03-12T01:11:35;9.95;;;4.05;;
47219;SDS011;32961;51.936;4.788;2023-03-12T01:14:05;11.40;;;4.53;;
47219;SDS011;32961;51.936;4.788;2023-03-12T01:16:34;12.27;;;4.45;;
47219;SDS011;32961;51.936;4.788;2023-03-12T01:19:02;11.68;;;3.90;;
47219;SDS011;32961;51.936;4.788;2023-03-12T01:21:30;18.05;;;4.85;;
47219;SDS011;32961;51.936;4.788;2023-03-12T01:23:58;8.40;;;3.78;;
47219;SDS011;32961;51.936;4.788;2023-03-12T01:26:26;10.85;;;4.70;;
47219;SDS011;32961;51.936;4.788;2023-03-12T01:28:56;9.50;;;3.72;;
47219;SDS011;32961;51.936;4.788;2023-03-12T01:31:24;10.20;;;4.05;;
47219;SDS011;32961;51.936;4.788;2023-03-12T01:33:54;10.98;;;4.57;;
47219;SDS011;32961;51.936;4.788;2023-03-12T01:36:23;15.88;;;4.85;;
47219;SDS011;32961;51.936;4.788;2023-03-12T01:38:53;10.18;;;4.30;;
47219;SDS011;32961;51.936;4.788;2023-03-12T01:41:23;6.68;;;3.97;;
47219;SDS011;32961;51.936;4.788;2023-03-12T01:43:52;10.30;;;4.60;;
47219;SDS011;32961;51.936;4.788;2023-03-12T01:46:24;12.82;;;4.18;;
47219;SDS011;32961;51.936;4.788;2023-03-12T01:51:24;10.32;;;3.75;;
47219;SDS011;32961;51.936;4.788;2023-03-12T01:53:55;10.82;;;4.00;;
47219;SDS011;32961;51.936;4.788;2023-03-12T01:56:27;10.35;;;4.20;;
47219;SDS011;32961;51.936;4.788;2023-03-12T01:58:59;14.20;;;3.95;;
47219;SDS011;32961;51.936;4.788;2023-03-12T02:01:31;12.50;;;3.95;;
47219;SDS011;32961;51.936;4.788;2023-03-12T02:03:59;6.35;;;3.35;;
47219;SDS011;32961;51.936;4.788;2023-03-12T02:06:30;6.85;;;3.65;;
47219;SDS011;32961;51.936;4.788;2023-03-12T02:09:03;6.80;;;3.42;;
47219;SDS011;32961;51.936;4.788;2023-03-12T02:11:33;10.52;;;3.67;;
47219;SDS011;32961;51.936;4.788;2023-03-12T02:14:01;9.88;;;3.83;;
47219;SDS011;32961;51.936;4.788;2023-03-12T02:16:31;8.23;;;4.10;;
47219;SDS011;32961;51.936;4.788;2023-03-12T02:18:59;11.57;;;3.53;;
47219;SDS011;32961;51.936;4.788;2023-03-12T02:21:30;7.20;;;3.30;;
47219;SDS011;32961;51.936;4.788;2023-03-12T02:24:02;11.95;;;4.00;;
47219;SDS011;32961;51.936;4.788;2023-03-12T02:29:05;10.27;;;3.55;;
47219;SDS011;32961;51.936;4.788;2023-03-12T02:31:34;11.00;;;3.58;;
47219;SDS011;32961;51.936;4.788;2023-03-12T02:36:35;10.10;;;3.70;;
47219;SDS011;32961;51.936;4.788;2023-03-12T02:39:03;8.02;;;4.65;;
47219;SDS011;32961;51.936;4.788;2023-03-12T02:41:31;10.57;;;4.10;;
47219;SDS011;32961;51.936;4.788;2023-03-12T02:44:03;10.55;;;5.00;;
47219;SDS011;32961;51.936;4.788;2023-03-12T02:46:37;13.32;;;3.70;;
47219;SDS011;32961;51.936;4.788;2023-03-12T02:49:07;8.30;;;3.80;;
47219;SDS011;32961;51.936;4.788;2023-03-12T02:51:37;8.38;;;3.55;;
47219;SDS011;32961;51.936;4.788;2023-03-12T02:54:05;10.25;;;3.30;;
47219;SDS011;32961;51.936;4.788;2023-03-12T02:56:33;10.43;;;3.60;;
47219;SDS011;32961;51.936;4.788;2023-03-12T02:59:03;8.65;;;4.15;;
47219;SDS011;32961;51.936;4.788;2023-03-12T03:01:31;10.38;;;3.70;;
47219;SDS011;32961;51.936;4.788;2023-03-12T03:04:00;7.82;;;3.38;;
47219;SDS011;32961;51.936;4.788;2023-03-12T03:06:29;6.82;;;3.78;;
47219;SDS011;32961;51.936;4.788;2023-03-12T03:08:57;9.43;;;3.92;;
47219;SDS011;32961;51.936;4.788;2023-03-12T03:11:26;10.90;;;4.07;;
47219;SDS011;32961;51.936;4.788;2023-03-12T03:13:54;11.95;;;3.58;;
47219;SDS011;32961;51.936;4.788;2023-03-12T03:16:23;9.93;;;3.60;;
47219;SDS011;32961;51.936;4.788;2023-03-12T03:18:51;18.65;;;3.95;;
47219;SDS011;32961;51.936;4.788;2023-03-12T03:21:19;10.20;;;4.18;;
47219;SDS011;32961;51.936;4.788;2023-03-12T03:23:48;7.95;;;4.10;;
47219;SDS011;32961;51.936;4.788;2023-03-12T03:26:18;11.18;;;3.53;;
47219;SDS011;32961;51.936;4.788;2023-03-12T03:28:48;10.63;;;4.00;;
47219;SDS011;32961;51.936;4.788;2023-03-12T03:31:16;13.10;;;4.15;;
47219;SDS011;32961;51.936;4.788;2023-03-12T03:33:46;9.05;;;3.47;;
47219;SDS011;32961;51.936;4.788;2023-03-12T03:36:14;7.25;;;3.67;;
47219;SDS011;32961;51.936;4.788;2023-03-12T03:38:44;8.20;;;4.22;;
47219;SDS011;32961;51.936;4.788;2023-03-12T03:41:15;9.63;;;4.28;;
47219;SDS011;32961;51.936;4.788;2023-03-12T03:43:43;10.27;;;4.53;;
47219;SDS011;32961;51.936;4.788;2023-03-12T03:46:12;8.93;;;4.07;;
47219;SDS011;32961;51.936;4.788;2023-03-12T03:48:41;10.77;;;3.90;;
47219;SDS011;32961;51.936;4.788;2023-03-12T03:51:12;11.73;;;3.92;;
47219;SDS011;32961;51.936;4.788;2023-03-12T03:53:40;6.45;;;3.40;;
47219;SDS011;32961;51.936;4.788;2023-03-12T03:56:08;7.57;;;3.80;;
47219;SDS011;32961;51.936;4.788;2023-03-12T03:58:37;11.20;;;3.60;;
47219;SDS011;32961;51.936;4.788;2023-03-12T04:01:05;9.82;;;4.07;;
47219;SDS011;32961;51.936;4.788;2023-03-12T04:03:33;11.02;;;3.95;;
47219;SDS011;32961;51.936;4.788;2023-03-12T04:06:02;13.60;;;4.07;;
47219;SDS011;32961;51.936;4.788;2023-03-12T04:08:34;7.20;;;3.88;;
47219;SDS011;32961;51.936;4.788;2023-03-12T04:11:06;12.23;;;3.88;;
47219;SDS011;32961;51.936;4.788;2023-03-12T04:13:35;11.35;;;4.18;;
47219;SDS011;32961;51.936;4.788;2023-03-12T04:16:03;9.60;;;3.90;;
47219;SDS011;32961;51.936;4.788;2023-03-12T04:18:31;8.30;;;3.53;;
47219;SDS011;32961;51.936;4.788;2023-03-12T04:21:01;13.27;;;4.10;;
47219;SDS011;32961;51.936;4.788;2023-03-12T04:23:30;11.32;;;4.05;;
47219;SDS011;32961;51.936;4.788;2023-03-12T04:25:59;9.07;;;3.47;;
47219;SDS011;32961;51.936;4.788;2023-03-12T04:28:27;12.65;;;3.88;;
47219;SDS011;32961;51.936;4.788;2023-03-12T04:30:56;12.23;;;3.75;;
47219;SDS011;32961;51.936;4.788;2023-03-12T04:33:25;12.75;;;4.22;;
47219;SDS011;32961;51.936;4.788;2023-03-12T04:35:53;10.02;;;3.63;;
47219;SDS011;32961;51.936;4.788;2023-03-12T04:38:21;8.60;;;3.42;;
47219;SDS011;32961;51.936;4.788;2023-03-12T04:40:56;10.38;;;3.70;;
47219;SDS011;32961;51.936;4.788;2023-03-12T04:43:26;8.80;;;3.72;;
47219;SDS011;32961;51.936;4.788;2023-03-12T04:45:55;8.02;;;3.83;;
47219;SDS011;32961;51.936;4.788;2023-03-12T04:48:23;12.57;;;4.50;;
47219;SDS011;32961;51.936;4.788;2023-03-12T04:50:52;13.35;;;4.45;;
47219;SDS011;32961;51.936;4.788;2023-03-12T04:53:20;12.85;;;4.57;;
47219;SDS011;32961;51.936;4.788;2023-03-12T04:55:49;12.13;;;4.78;;
47219;SDS011;32961;51.936;4.788;2023-03-12T04:58:17;13.88;;;5.30;;
47219;SDS011;32961;51.936;4.788;2023-03-12T05:00:47;17.75;;;4.82;;
47219;SDS011;32961;51.936;4.788;2023-03-12T05:03:16;9.13;;;4.53;;
47219;SDS011;32961;51.936;4.788;2023-03-12T05:05:44;10.43;;;4.60;;
47219;SDS011;32961;51.936;4.788;2023-03-12T05:08:12;14.93;;;4.70;;
47219;SDS011;32961;51.936;4.788;2023-03-12T05:10:40;12.50;;;4.63;;
47219;SDS011;32961;51.936;4.788;2023-03-12T05:13:13;12.30;;;5.53;;
47219;SDS011;32961;51.936;4.788;2023-03-12T05:15:41;15.75;;;5.68;;
47219;SDS011;32961;51.936;4.788;2023-03-12T05:18:11;11.93;;;5.10;;
47219;SDS011;32961;51.936;4.788;2023-03-12T05:20:39;18.60;;;6.20;;
47219;SDS011;32961;51.936;4.788;2023-03-12T05:23:07;17.10;;;5.03;;
47219;SDS011;32961;51.936;4.788;2023-03-12T05:25:37;16.02;;;6.28;;
47219;SDS011;32961;51.936;4.788;2023-03-12T05:28:05;12.85;;;5.50;;
47219;SDS011;32961;51.936;4.788;2023-03-12T05:30:33;9.65;;;5.40;;
47219;SDS011;32961;51.936;4.788;2023-03-12T05:33:01;14.32;;;5.53;;
47219;SDS011;32961;51.936;4.788;2023-03-12T05:35:30;20.40;;;7.60;;
47219;SDS011;32961;51.936;4.788;2023-03-12T05:37:58;14.13;;;5.97;;
47219;SDS011;32961;51.936;4.788;2023-03-12T05:40:26;11.93;;;5.70;;
47219;SDS011;32961;51.936;4.788;2023-03-12T05:42:54;19.00;;;8.57;;
47219;SDS011;32961;51.936;4.788;2023-03-12T05:45:21;16.42;;;5.90;;
47219;SDS011;32961;51.936;4.788;2023-03-12T05:47:49;10.57;;;5.35;;
47219;SDS011;32961;51.936;4.788;2023-03-12T05:50:17;11.85;;;5.90;;
47219;SDS011;32961;51.936;4.788;2023-03-12T05:52:46;18.45;;;5.70;;
47219;SDS011;32961;51.936;4.788;2023-03-12T05:55:14;23.88;;;7.20;;
47219;SDS011;32961;51.936;4.788;2023-03-12T05:57:42;16.98;;;8.45;;
47219;SDS011;32961;51.936;4.788;2023-03-12T06:00:11;12.73;;;5.90;;
47219;SDS011;32961;51.936;4.788;2023-03-12T06:02:40;14.15;;;6.18;;
47219;SDS011;32961;51.936;4.788;2023-03-12T06:05:09;14.30;;;6.35;;
47219;SDS011;32961;51.936;4.788;2023-03-12T06:07:37;10.50;;;6.07;;
47219;SDS011;32961;51.936;4.788;2023-03-12T06:10:07;13.13;;;5.80;;
47219;SDS011;32961;51.936;4.788;2023-03-12T06:12:36;12.05;;;6.18;;
47219;SDS011;32961;51.936;4.788;2023-03-12T06:15:04;15.20;;;6.55;;
47219;SDS011;32961;51.936;4.788;2023-03-12T06:17:32;42.65;;;15.48;;
47219;SDS011;32961;51.936;4.788;2023-03-12T06:20:00;17.95;;;7.90;;
47219;SDS011;32961;51.936;4.788;2023-03-12T06:22:28;17.00;;;7.60;;
47219;SDS011;32961;51.936;4.788;2023-03-12T06:24:56;16.33;;;8.32;;
47219;SDS011;32961;51.936;4.788;2023-03-12T06:27:25;16.20;;;8.23;;
47219;SDS011;32961;51.936;4.788;2023-03-12T06:29:53;21.73;;;8.90;;
47219;SDS011;32961;51.936;4.788;2023-03-12T06:32:23;13.55;;;8.02;;
47219;SDS011;32961;51.936;4.788;2023-03-12T06:34:53;14.73;;;8.07;;
47219;SDS011;32961;51.936;4.788;2023-03-12T06:37:20;15.25;;;8.27;;
47219;SDS011;32961;51.936;4.788;2023-03-12T06:39:51;20.83;;;8.18;;
47219;SDS011;32961;51.936;4.788;2023-03-12T06:42:18;21.73;;;7.90;;
47219;SDS011;32961;51.936;4.788;2023-03-12T06:44:49;19.45;;;8.73;;
47219;SDS011;32961;51.936;4.788;2023-03-12T06:47:17;15.98;;;8.38;;
47219;SDS011;32961;51.936;4.788;2023-03-12T06:49:45;14.27;;;8.27;;
47219;SDS011;32961;51.936;4.788;2023-03-12T06:52:12;18.20;;;9.18;;
47219;SDS011;32961;51.936;4.788;2023-03-12T06:54:42;30.55;;;15.77;;
47219;SDS011;32961;51.936;4.788;2023-03-12T06:57:10;17.48;;;9.18;;
47219;SDS011;32961;51.936;4.788;2023-03-12T06:59:38;14.73;;;8.68;;
47219;SDS011;32961;51.936;4.788;2023-03-12T07:02:08;19.77;;;9.60;;
47219;SDS011;32961;51.936;4.788;2023-03-12T07:04:36;22.77;;;12.65;;
47219;SDS011;32961;51.936;4.788;2023-03-12T07:07:04;15.55;;;9.65;;
47219;SDS011;32961;51.936;4.788;2023-03-12T07:09:33;18.98;;;9.65;;
47219;SDS011;32961;51.936;4.788;2023-03-12T07:12:02;17.30;;;9.65;;
47219;SDS011;32961;51.936;4.788;2023-03-12T07:14:30;21.02;;;10.07;;
47219;SDS011;32961;51.936;4.788;2023-03-12T07:17:01;22.80;;;10.68;;
47219;SDS011;32961;51.936;4.788;2023-03-12T07:19:31;21.70;;;9.18;;
47219;SDS011;32961;51.936;4.788;2023-03-12T07:21:58;18.23;;;9.05;;
47219;SDS011;32961;51.936;4.788;2023-03-12T07:24:41;21.25;;;9.48;;
47219;SDS011;32961;51.936;4.788;2023-03-12T07:27:09;16.48;;;9.63;;
47219;SDS011;32961;51.936;4.788;2023-03-12T07:29:37;17.55;;;9.32;;
47219;SDS011;32961;51.936;4.788;2023-03-12T07:32:05;20.05;;;9.23;;
47219;SDS011;32961;51.936;4.788;2023-03-12T07:34:34;18.52;;;9.60;;
47219;SDS011;32961;51.936;4.788;2023-03-12T07:37:02;22.25;;;9.23;;
47219;SDS011;32961;51.936;4.788;2023-03-12T07:39:30;30.77;;;14.23;;
47219;SDS011;32961;51.936;4.788;2023-03-12T07:41:58;23.23;;;11.55;;
47219;SDS011;32961;51.936;4.788;2023-03-12T07:44:26;19.08;;;10.43;;
47219;SDS011;32961;51.936;4.788;2023-03-12T07:46:54;18.65;;;10.43;;
47219;SDS011;32961;51.936;4.788;2023-03-12T07:49:22;19.38;;;10.77;;
47219;SDS011;32961;51.936;4.788;2023-03-12T07:51:51;22.75;;;11.18;;
47219;SDS011;32961;51.936;4.788;2023-03-12T07:54:19;25.48;;;12.45;;
47219;SDS011;32961;51.936;4.788;2023-03-12T07:56:50;46.95;;;19.92;;
47219;SDS011;32961;51.936;4.788;2023-03-12T07:59:19;25.60;;;12.38;;
47219;SDS011;32961;51.936;4.788;2023-03-12T08:01:47;25.85;;;12.32;;
47219;SDS011;32961;51.936;4.788;2023-03-12T08:04:15;33.58;;;17.98;;
47219;SDS011;32961;51.936;4.788;2023-03-12T08:06:46;27.00;;;14.60;;
47219;SDS011;32961;51.936;4.788;2023-03-12T08:09:15;31.75;;;15.32;;
47219;SDS011;32961;51.936;4.788;2023-03-12T08:11:43;27.75;;;17.20;;
47219;SDS011;32961;51.936;4.788;2023-03-12T08:14:10;30.92;;;16.67;;
47219;SDS011;32961;51.936;4.788;2023-03-12T08:16:38;31.60;;;17.67;;
47219;SDS011;32961;51.936;4.788;2023-03-12T08:19:11;36.97;;;20.70;;
47219;SDS011;32961;51.936;4.788;2023-03-12T08:21:49;41.05;;;20.40;;
47219;SDS011;32961;51.936;4.788;2023-03-12T08:24:20;33.67;;;19.10;;
47219;SDS011;32961;51.936;4.788;2023-03-12T08:26:48;40.33;;;20.60;;
47219;SDS011;32961;51.936;4.788;2023-03-12T08:29:16;44.30;;;22.55;;
47219;SDS011;32961;51.936;4.788;2023-03-12T08:31:44;50.33;;;21.95;;
47219;SDS011;32961;51.936;4.788;2023-03-12T08:34:29;41.70;;;21.05;;
47219;SDS011;32961;51.936;4.788;2023-03-12T08:36:57;39.20;;;21.55;;
47219;SDS011;32961;51.936;4.788;2023-03-12T08:39:26;44.17;;;21.55;;
47219;SDS011;32961;51.936;4.788;2023-03-12T08:41:54;41.80;;;21.92;;
47219;SDS011;32961;51.936;4.788;2023-03-12T08:44:22;55.10;;;24.20;;
47219;SDS011;32961;51.936;4.788;2023-03-12T08:46:50;56.75;;;28.00;;
47219;SDS011;32961;51.936;4.788;2023-03-12T08:49:19;53.47;;;26.17;;
47219;SDS011;32961;51.936;4.788;2023-03-12T08:51:47;49.45;;;24.48;;
47219;SDS011;32961;51.936;4.788;2023-03-12T08:54:16;66.03;;;29.48;;
47219;SDS011;32961;51.936;4.788;2023-03-12T08:56:49;56.80;;;28.45;;
47219;SDS011;32961;51.936;4.788;2023-03-12T08:59:17;52.53;;;26.52;;
47219;SDS011;32961;51.936;4.788;2023-03-12T09:01:47;61.17;;;27.30;;
47219;SDS011;32961;51.936;4.788;2023-03-12T09:04:15;67.68;;;28.58;;
47219;SDS011;32961;51.936;4.788;2023-03-12T09:06:43;53.78;;;27.15;;
47219;SDS011;32961;51.936;4.788;2023-03-12T09:09:11;59.95;;;25.85;;
47219;SDS011;32961;51.936;4.788;2023-03-12T09:11:39;56.55;;;27.00;;
47219;SDS011;32961;51.936;4.788;2023-03-12T09:14:09;52.15;;;26.15;;
47219;SDS011;32961;51.936;4.788;2023-03-12T09:16:56;44.55;;;24.80;;
47219;SDS011;32961;51.936;4.788;2023-03-12T09:19:24;47.72;;;24.33;;
47219;SDS011;32961;51.936;4.788;2023-03-12T09:21:52;58.45;;;26.55;;
47219;SDS011;32961;51.936;4.788;2023-03-12T09:24:20;45.47;;;23.42;;
47219;SDS011;32961;51.936;4.788;2023-03-12T09:26:48;47.88;;;23.52;;
47219;SDS011;32961;51.936;4.788;2023-03-12T09:29:18;59.03;;;31.27;;
47219;SDS011;32961;51.936;4.788;2023-03-12T09:31:46;80.90;;;41.00;;
47219;SDS011;32961;51.936;4.788;2023-03-12T09:34:14;44.33;;;23.30;;
47219;SDS011;32961;51.936;4.788;2023-03-12T09:36:43;43.30;;;21.70;;
47219;SDS011;32961;51.936;4.788;2023-03-12T09:39:10;39.55;;;21.80;;
47219;SDS011;32961;51.936;4.788;2023-03-12T09:41:39;41.50;;;20.98;;
47219;SDS011;32961;51.936;4.788;2023-03-12T09:44:09;46.30;;;21.38;;
47219;SDS011;32961;51.936;4.788;2023-03-12T09:46:45;42.92;;;20.38;;
47219;SDS011;32961;51.936;4.788;2023-03-12T09:49:16;43.13;;;19.45;;
47219;SDS011;32961;51.936;4.788;2023-03-12T09:51:50;41.75;;;19.38;;
47219;SDS011;32961;51.936;4.788;2023-03-12T09:54:22;39.38;;;17.38;;
47219;SDS011;32961;51.936;4.788;2023-03-12T09:56:53;40.38;;;15.98;;
47219;SDS011;32961;51.936;4.788;2023-03-12T09:59:24;51.33;;;18.42;;
47219;SDS011;32961;51.936;4.788;2023-03-12T10:01:56;46.72;;;15.10;;
47219;SDS011;32961;51.936;4.788;2023-03-12T10:04:29;41.22;;;14.30;;
47219;SDS011;32961;51.936;4.788;2023-03-12T10:07:23;46.33;;;13.05;;
47219;SDS011;32961;51.936;4.788;2023-03-12T10:10:02;37.47;;;11.70;;
47219;SDS011;32961;51.936;4.788;2023-03-12T10:12:40;48.88;;;11.55;;
47219;SDS011;32961;51.936;4.788;2023-03-12T10:15:22;50.03;;;11.45;;
47219;SDS011;32961;51.936;4.788;2023-03-12T10:18:01;43.33;;;10.38;;
47219;SDS011;32961;51.936;4.788;2023-03-12T10:23:37;54.50;;;11.57;;
47219;SDS011;32961;51.936;4.788;2023-03-12T10:26:17;37.88;;;8.68;;
47219;SDS011;32961;51.936;4.788;2023-03-12T10:28:48;51.65;;;8.82;;
47219;SDS011;32961;51.936;4.788;2023-03-12T10:31:20;50.15;;;10.35;;
47219;SDS011;32961;51.936;4.788;2023-03-12T10:33:55;54.30;;;8.00;;
47219;SDS011;32961;51.936;4.788;2023-03-12T10:36:26;62.58;;;10.05;;
47219;SDS011;32961;51.936;4.788;2023-03-12T10:39:00;43.67;;;8.40;;
47219;SDS011;32961;51.936;4.788;2023-03-12T10:41:29;43.63;;;7.72;;
47219;SDS011;32961;51.936;4.788;2023-03-12T10:44:00;54.80;;;7.88;;
47219;SDS011;32961;51.936;4.788;2023-03-12T10:46:45;38.73;;;9.63;;
47219;SDS011;32961;51.936;4.788;2023-03-12T10:49:26;43.53;;;9.80;;
47219;SDS011;32961;51.936;4.788;2023-03-12T10:51:57;50.85;;;8.57;;
47219;SDS011;32961;51.936;4.788;2023-03-12T10:54:28;47.10;;;6.32;;
47219;SDS011;32961;51.936;4.788;2023-03-12T10:56:58;47.08;;;7.18;;
47219;SDS011;32961;51.936;4.788;2023-03-12T10:59:27;56.92;;;9.32;;
47219;SDS011;32961;51.936;4.788;2023-03-12T11:01:57;56.92;;;7.75;;
47219;SDS011;32961;51.936;4.788;2023-03-12T11:04:28;59.50;;;9.02;;
47219;SDS011;32961;51.936;4.788;2023-03-12T11:07:04;40.85;;;7.25;;
47219;SDS011;32961;51.936;4.788;2023-03-12T11:09:41;50.38;;;7.57;;
47219;SDS011;32961;51.936;4.788;2023-03-12T11:12:21;52.13;;;8.10;;
47219;SDS011;32961;51.936;4.788;2023-03-12T11:14:51;47.47;;;7.60;;
47219;SDS011;32961;51.936;4.788;2023-03-12T11:17:19;63.13;;;7.82;;
47219;SDS011;32961;51.936;4.788;2023-03-12T11:19:50;49.38;;;7.28;;
47219;SDS011;32961;51.936;4.788;2023-03-12T11:22:28;47.38;;;8.48;;
47219;SDS011;32961;51.936;4.788;2023-03-12T11:24:58;58.20;;;8.48;;
47219;SDS011;32961;51.936;4.788;2023-03-12T11:27:31;44.95;;;8.75;;
47219;SDS011;32961;51.936;4.788;2023-03-12T11:30:10;52.17;;;8.85;;
47219;SDS011;32961;51.936;4.788;2023-03-12T11:35:12;53.80;;;7.93;;
47219;SDS011;32961;51.936;4.788;2023-03-12T11:37:44;50.28;;;9.50;;
47219;SDS011;32961;51.936;4.788;2023-03-12T11:40:31;48.85;;;7.32;;
47219;SDS011;32961;51.936;4.788;2023-03-12T11:43:18;47.72;;;8.20;;
47219;SDS011;32961;51.936;4.788;2023-03-12T11:46:16;55.20;;;6.95;;
47219;SDS011;32961;51.936;4.788;2023-03-12T11:48:55;37.30;;;6.20;;
47219;SDS011;32961;51.936;4.788;2023-03-12T11:51:38;49.92;;;7.57;;
47219;SDS011;32961;51.936;4.788;2023-03-12T11:57:33;50.25;;;6.90;;
47219;SDS011;32961;51.936;4.788;2023-03-12T12:00:13;51.47;;;8.55;;
47219;SDS011;32961;51.936;4.788;2023-03-12T12:03:03;45.90;;;8.38;;
47219;SDS011;32961;51.936;4.788;2023-03-12T12:05:55;51.63;;;8.80;;
47219;SDS011;32961;51.936;4.788;2023-03-12T12:08:35;48.97;;;7.50;;
47219;SDS011;32961;51.936;4.788;2023-03-12T12:11:24;50.03;;;7.60;;
47219;SDS011;32961;51.936;4.788;2023-03-12T12:14:04;63.30;;;10.20;;
47219;SDS011;32961;51.936;4.788;2023-03-12T12:19:37;46.53;;;8.98;;
47219;SDS011;32961;51.936;4.788;2023-03-12T12:22:21;49.92;;;7.80;;
47219;SDS011;32961;51.936;4.788;2023-03-12T12:25:05;52.70;;;8.63;;
47219;SDS011;32961;51.936;4.788;2023-03-12T12:27:49;49.90;;;10.95;;
47219;SDS011;32961;51.936;4.788;2023-03-12T12:30:26;40.92;;;7.75;;
47219;SDS011;32961;51.936;4.788;2023-03-12T12:33:16;41.22;;;9.05;;
47219;SDS011;32961;51.936;4.788;2023-03-12T12:35:54;44.00;;;8.45;;
47219;SDS011;32961;51.936;4.788;2023-03-12T12:38:22;54.58;;;9.32;;
47219;SDS011;32961;51.936;4.788;2023-03-12T12:41:00;37.03;;;6.40;;
47219;SDS011;32961;51.936;4.788;2023-03-12T12:43:36;43.38;;;9.75;;
47219;SDS011;32961;51.936;4.788;2023-03-12T12:46:06;45.28;;;7.43;;
47219;SDS011;32961;51.936;4.788;2023-03-12T12:48:37;49.70;;;7.30;;
47219;SDS011;32961;51.936;4.788;2023-03-12T12:51:08;37.90;;;8.82;;
47219;SDS011;32961;51.936;4.788;2023-03-12T12:53:39;47.30;;;7.63;;
47219;SDS011;32961;51.936;4.788;2023-03-12T12:56:16;46.08;;;8.82;;
47219;SDS011;32961;51.936;4.788;2023-03-12T12:59:00;50.58;;;8.23;;
47219;SDS011;32961;51.936;4.788;2023-03-12T13:01:37;39.72;;;6.90;;
47219;SDS011;32961;51.936;4.788;2023-03-12T13:04:08;45.40;;;8.43;;
47219;SDS011;32961;51.936;4.788;2023-03-12T13:06:52;47.08;;;8.02;;
47219;SDS011;32961;51.936;4.788;2023-03-12T13:09:34;45.30;;;7.03;;
47219;SDS011;32961;51.936;4.788;2023-03-12T13:12:11;42.65;;;8.02;;
47219;SDS011;32961;51.936;4.788;2023-03-12T13:14:42;43.38;;;9.13;;
47219;SDS011;32961;51.936;4.788;2023-03-12T13:17:21;36.75;;;6.63;;
47219;SDS011;32961;51.936;4.788;2023-03-12T13:19:57;39.63;;;6.88;;
47219;SDS011;32961;51.936;4.788;2023-03-12T13:22:44;47.05;;;9.60;;
47219;SDS011;32961;51.936;4.788;2023-03-12T13:25:29;43.80;;;7.55;;
47219;SDS011;32961;51.936;4.788;2023-03-12T13:30:58;43.17;;;7.30;;
47219;SDS011;32961;51.936;4.788;2023-03-12T13:33:37;41.88;;;7.10;;
47219;SDS011;32961;51.936;4.788;2023-03-12T13:36:10;51.28;;;8.15;;
47219;SDS011;32961;51.936;4.788;2023-03-12T13:38:53;38.60;;;7.03;;
47219;SDS011;32961;51.936;4.788;2023-03-12T13:41:33;45.15;;;7.00;;
47219;SDS011;32961;51.936;4.788;2023-03-12T13:47:16;34.92;;;6.88;;
47219;SDS011;32961;51.936;4.788;2023-03-12T13:49:51;46.35;;;7.70;;
47219;SDS011;32961;51.936;4.788;2023-03-12T13:52:21;38.25;;;6.97;;
47219;SDS011;32961;51.936;4.788;2023-03-12T13:54:56;51.58;;;8.60;;
47219;SDS011;32961;51.936;4.788;2023-03-12T13:57:29;48.08;;;10.88;;
47219;SDS011;32961;51.936;4.788;2023-03-12T14:00:10;38.10;;;6.60;;
47219;SDS011;32961;51.936;4.788;2023-03-12T14:02:43;52.10;;;7.50;;
47219;SDS011;32961;51.936;4.788;2023-03-12T14:05:16;44.95;;;7.90;;
47219;SDS011;32961;51.936;4.788;2023-03-12T14:07:54;46.38;;;7.88;;
47219;SDS011;32961;51.936;4.788;2023-03-12T14:10:32;40.08;;;7.28;;
47219;SDS011;32961;51.936;4.788;2023-03-12T14:13:13;39.42;;;7.40;;
47219;SDS011;32961;51.936;4.788;2023-03-12T14:15:52;47.80;;;9.13;;
47219;SDS011;32961;51.936;4.788;2023-03-12T14:18:27;44.08;;;8.00;;
47219;SDS011;32961;51.936;4.788;2023-03-12T14:20:59;43.38;;;8.85;;
47219;SDS011;32961;51.936;4.788;2023-03-12T14:23:32;42.63;;;9.27;;
47219;SDS011;32961;51.936;4.788;2023-03-12T14:26:04;49.72;;;8.73;;
47219;SDS011;32961;51.936;4.788;2023-03-12T14:28:36;38.40;;;7.55;;
47219;SDS011;32961;51.936;4.788;2023-03-12T14:31:10;36.55;;;7.18;;
47219;SDS011;32961;51.936;4.788;2023-03-12T14:33:52;42.75;;;7.78;;
47219;SDS011;32961;51.936;4.788;2023-03-12T14:36:24;37.45;;;6.70;;
47219;SDS011;32961;51.936;4.788;2023-03-12T14:38:58;42.08;;;7.10;;
47219;SDS011;32961;51.936;4.788;2023-03-12T14:41:34;30.15;;;6.60;;
47219;SDS011;32961;51.936;4.788;2023-03-12T14:44:16;36.45;;;6.57;;
47219;SDS011;32961;51.936;4.788;2023-03-12T14:46:56;40.60;;;8.07;;
47219;SDS011;32961;51.936;4.788;2023-03-12T14:49:26;34.67;;;6.07;;
47219;SDS011;32961;51.936;4.788;2023-03-12T14:51:54;35.70;;;7.03;;
47219;SDS011;32961;51.936;4.788;2023-03-12T14:54:24;40.45;;;6.88;;
47219;SDS011;32961;51.936;4.788;2023-03-12T14:56:53;38.92;;;7.32;;
47219;SDS011;32961;51.936;4.788;2023-03-12T14:59:23;43.15;;;7.55;;
47219;SDS011;32961;51.936;4.788;2023-03-12T15:01:57;46.72;;;8.73;;
47219;SDS011;32961;51.936;4.788;2023-03-12T15:04:27;32.63;;;6.93;;
47219;SDS011;32961;51.936;4.788;2023-03-12T15:06:57;42.90;;;9.45;;
47219;SDS011;32961;51.936;4.788;2023-03-12T15:09:30;37.35;;;6.30;;
47219;SDS011;32961;51.936;4.788;2023-03-12T15:12:02;42.92;;;8.13;;
47219;SDS011;32961;51.936;4.788;2023-03-12T15:14:38;40.17;;;7.00;;
47219;SDS011;32961;51.936;4.788;2023-03-12T15:17:10;38.45;;;7.25;;
47219;SDS011;32961;51.936;4.788;2023-03-12T15:19:42;43.72;;;7.90;;
47219;SDS011;32961;51.936;4.788;2023-03-12T15:22:12;53.65;;;8.93;;
47219;SDS011;32961;51.936;4.788;2023-03-12T15:24:43;50.90;;;8.48;;